Topsfield, ME

3:23 AM EST on November 18, 2019 (GMT -0500)
Near Lake | | Change Station
Active Advisory: Winter Weather Advisory

Elev 850 ft 45.54 °N, 67.54 °W | Updated 13 seconds ago

Partly Cloudy
Partly Cloudy
20.1 °F
Feels Like 20 °F
N
0
Wind Variable Wind from West
Gusts 0.0 mph

Today
High -- | Low -- °F
--% Chance of Precip.
Yesterday
High -- | Low -- °F
Precip. -- in
Pressure 30.26 in
Visibility 10.0 miles
Clouds Clear
Windchill 20 °F
Dew Point 20 °F
Humidity 99%
Rainfall 0.00 in
Snow Depth Not available.
6:33 AM 3:58 PM
Waning Gibbous, 67% visible
METAR KHUL 180753Z AUTO 00000KT 10SM CLR M17/M19 A3022 RMK AO2 SLP246 T11671189
Pressure 30.26 in
Visibility 10.0 miles
Clouds Clear
Windchill 20 °F
Dew Point 20 °F
Humidity 99%
Rainfall 0.00 in
Snow Depth Not available.
6:33 AM 3:58 PM
Waning Gibbous, 67% visible
METAR KHUL 180753Z AUTO 00000KT 10SM CLR M17/M19 A3022 RMK AO2 SLP246 T11671189

Get Your Daily Forecast Email!

Thanks for signing up!

Be on the lookout for a verification email in your inbox.

You'll start receiving severe weather alerts in your inbox..

×

10-Day Weather Forecast

Almanac

Astronomy

Nov. 18, 2019 Rise Set
Actual Time
Civil Twilight
Nautical Twilight
Astronomical Twilight
Moon
Length of Visible Light
Length of Day
Tomorrow will be .
, % of the Moon is Illuminated

Today's Extremes

State Highs State Lows

Community

WunderPhotos

Category 6

Welcome to Category 6. This is the collective home for Weather Underground's featured writeups by Dr. Jeff Masters (right), Bob Henson (left), Chris Burt, and other regular contributors.

Nearby

Air Quality

  Air Quality AQ Index Pollutant
Not available.

Snow Depth

Station Depth Elevation

Earthquake Activity

City Distance Mag. Time & Date
Minimum magnitude displayed is 2.5.

Coastal Water Temperatures

Place Temperature

Stations

Nearby Weather Stations

Station Location Temp. Windchill Dew Point Humidity Wind Precip. Elev Updated Type
                   

Watches & Warnings

Winter Weather Advisory
Issued: 10:05 PM EST Nov. 17, 2019 – National Weather Service

... Winter Weather Advisory remains in effect from 9 am to 1 PM
EST Monday...

* what... light freezing rain and sleet is expected. Total ice
accumulations of a light glaze expected.

* Where... portions of Central Highlands, far eastern, interior
downeast and Penobscot valley Maine.

* When... from 9 am to 1 PM EST Monday.

* Additional details... plan on slippery Road conditions. The
hazardous conditions could impact the evening commute.

Precautionary/preparedness actions...

A Winter Weather Advisory means that periods of freezing rain
will cause travel difficulties. Expect slippery roads. Slow down
and use caution while driving.

The latest Road conditions for Maine can be obtained by going to
newengland511.Org.